Time;durP1;ratioP1;P1;durP2;ratioP2;P2;SDS_P1;SDS_P2;PMS_P1;PMS_P2;Temp;Humidity;BMP_temperature;BMP_pressure;BME280_temperature;BME280_humidity;BME280_pressure;Samples;Min_cycle;Max_cycle;Signal;HPM_P1;HPM_P2
2021/06/23 00:00:28;;;;;;;9.88;6.72;;;25.80;75.20;;;;;;1884754;76;21092;-49
2021/06/23 00:02:58;;;;;;;7.87;6.42;;;25.80;75.20;;;;;;1884850;76;21100;-51
2021/06/23 00:05:28;;;;;;;10.72;6.12;;;25.70;75.10;;;;;;1884761;76;21039;-51
2021/06/23 00:07:57;;;;;;;8.45;6.53;;;25.70;75.10;;;;;;1884656;75;21023;-51
2021/06/23 00:10:27;;;;;;;8.18;6.50;;;25.70;75.10;;;;;;1884604;76;21039;-53
2021/06/23 00:13:00;;;;;;;11.05;6.85;;;25.60;75.10;;;;;;1884638;75;21035;-50
2021/06/23 00:15:28;;;;;;;6.85;6.00;;;25.60;75.30;;;;;;1884791;75;21022;-51
2021/06/23 00:17:58;;;;;;;10.13;6.72;;;25.50;75.50;;;;;;1884640;75;21031;-52
2021/06/23 00:20:27;;;;;;;7.97;6.65;;;25.50;75.60;;;;;;1884653;75;21027;-49
2021/06/23 00:22:57;;;;;;;8.38;6.70;;;25.40;75.80;;;;;;1884588;76;21030;-49
2021/06/23 00:25:26;;;;;;;10.50;6.83;;;25.40;75.90;;;;;;1884707;76;21035;-53
2021/06/23 00:27:56;;;;;;;7.95;6.60;;;25.40;75.80;;;;;;1884626;76;21104;-52
2021/06/23 00:30:26;;;;;;;7.60;6.25;;;25.40;75.80;;;;;;1884682;76;21022;-50
2021/06/23 00:32:57;;;;;;;13.90;6.60;;;25.40;75.80;;;;;;1884596;76;21007;-49
2021/06/23 00:35:27;;;;;;;10.05;6.50;;;25.40;75.90;;;;;;1884171;76;21501;-52
2021/06/23 00:37:56;;;;;;;10.63;6.55;;;25.40;75.90;;;;;;1884681;76;20999;-49
2021/06/23 00:40:25;;;;;;;7.15;6.45;;;25.50;76.10;;;;;;1884861;76;21006;-50
2021/06/23 00:42:55;;;;;;;10.10;7.00;;;25.40;75.90;;;;;;1884728;76;21026;-49
2021/06/23 00:45:25;;;;;;;10.55;6.85;;;25.50;76.00;;;;;;1884721;75;21063;-51
2021/06/23 00:47:58;;;;;;;9.58;6.85;;;25.50;75.90;;;;;;1886866;75;21062;-53
2021/06/23 00:50:29;;;;;;;8.38;6.58;;;25.50;76.10;;;;;;1894251;74;21022;-50
2021/06/23 00:53:00;;;;;;;9.25;6.70;;;25.40;76.10;;;;;;1892923;75;21058;-51
2021/06/23 00:55:31;;;;;;;10.72;6.53;;;25.50;76.10;;;;;;1894115;75;21045;-49
2021/06/23 00:58:02;;;;;;;17.52;9.25;;;25.50;76.00;;;;;;1894250;75;21014;-50
2021/06/23 01:00:34;;;;;;;18.27;8.70;;;25.50;76.00;;;;;;1894297;76;21105;-49
2021/06/23 01:03:05;;;;;;;12.60;7.40;;;25.50;76.00;;;;;;1894202;76;21100;-51
2021/06/23 01:05:37;;;;;;;11.15;7.22;;;25.50;76.00;;;;;;1894125;75;21046;-50
2021/06/23 01:08:10;;;;;;;11.50;7.97;;;25.50;76.00;;;;;;1893797;75;21092;-50
2021/06/23 01:10:39;;;;;;;7.60;6.83;;;25.50;76.00;;;;;;1894313;76;21084;-51
2021/06/23 01:13:23;;;;;;;7.97;6.78;;;25.50;76.00;;;;;;1894015;75;21007;-51
2021/06/23 01:15:58;;;;;;;11.33;7.87;;;25.40;76.00;;;;;;1893743;75;21171;-51
2021/06/23 01:18:27;;;;;;;10.03;7.60;;;25.40;76.00;;;;;;1857932;76;21036;-50
2021/06/23 01:20:57;;;;;;;9.13;7.83;;;25.40;76.10;;;;;;1900341;75;21046;-49
2021/06/23 01:23:26;;;;;;;7.67;6.97;;;25.30;76.30;;;;;;1858077;76;21029;-49
2021/06/23 01:25:56;;;;;;;14.35;7.67;;;25.20;76.40;;;;;;1858359;77;21112;-50
2021/06/23 01:28:25;;;;;;;13.22;7.78;;;25.20;76.60;;;;;;1900311;75;21022;-49
2021/06/23 01:31:19;;;;;;;9.38;8.43;;;25.20;76.70;;;;;;1858015;77;21086;-51
2021/06/23 01:33:50;;;;;;;9.20;8.25;;;25.10;76.70;;;;;;1857898;77;21060;-49
2021/06/23 01:36:22;;;;;;;9.60;7.55;;;25.00;76.80;;;;;;1858221;77;21025;-52
2021/06/23 01:38:52;;;;;;;8.53;7.62;;;24.90;77.10;;;;;;1858080;77;21072;-49
2021/06/23 01:41:22;;;;;;;10.00;8.30;;;24.80;77.40;;;;;;1858157;77;21065;-50
2021/06/23 01:43:52;;;;;;;9.88;8.75;;;24.70;77.70;;;;;;1900305;75;21101;-52
2021/06/23 01:46:21;;;;;;;15.98;8.15;;;24.60;77.90;;;;;;1858158;76;21416;-52
2021/06/23 01:48:51;;;;;;;11.80;8.33;;;24.60;78.10;;;;;;1900284;75;21140;-49
2021/06/23 01:51:21;;;;;;;11.70;7.58;;;24.50;78.20;;;;;;1900261;75;21092;-52
2021/06/23 01:53:52;;;;;;;16.42;7.75;;;24.50;78.30;;;;;;1900281;74;21115;-50
2021/06/23 01:56:21;;;;;;;9.75;8.23;;;24.50;78.50;;;;;;1858077;76;21029;-51
2021/06/23 01:58:51;;;;;;;9.08;7.47;;;24.50;78.40;;;;;;1858037;76;21029;-52
2021/06/23 02:01:34;;;;;;;12.00;8.25;;;24.50;78.40;;;;;;1856509;77;21100;-49
2021/06/23 02:04:09;;;;;;;10.82;7.42;;;24.40;78.40;;;;;;1857283;76;21042;-51
2021/06/23 02:06:51;;;;;;;10.70;6.97;;;24.40;78.30;;;;;;1900087;75;21490;-51
2021/06/23 02:09:40;;;;;;;11.60;7.40;;;24.40;78.20;;;;;;1900319;75;21077;-50
2021/06/23 02:12:28;;;;;;;10.50;7.53;;;24.40;77.90;;;;;;1899283;75;21069;-52
2021/06/23 02:15:04;;;;;;;10.98;7.72;;;24.40;77.80;;;;;;1900045;75;21049;-52
2021/06/23 02:17:36;;;;;;;9.27;7.17;;;24.30;77.60;;;;;;1900376;74;21120;-50
2021/06/23 02:20:10;;;;;;;8.93;7.33;;;24.20;77.50;;;;;;1899699;75;21477;-52
2021/06/23 02:22:41;;;;;;;9.00;7.17;;;24.20;77.50;;;;;;1900388;75;21034;-49
2021/06/23 02:25:13;;;;;;;13.13;7.50;;;24.20;77.50;;;;;;1898309;75;21029;-51
2021/06/23 02:27:53;;;;;;;8.13;7.20;;;24.10;78.00;;;;;;1866310;75;21150;-52
2021/06/23 02:30:22;;;;;;;10.70;7.83;;;24.10;77.50;;;;;;1858198;76;21091;-49
2021/06/23 02:32:55;;;;;;;13.40;7.78;;;24.10;77.60;;;;;;1899990;75;21213;-52
2021/06/23 02:35:29;;;;;;;9.98;7.28;;;24.10;77.60;;;;;;1900301;74;21053;-52
2021/06/23 02:37:59;;;;;;;11.08;8.38;;;24.10;77.60;;;;;;1900614;74;21049;-52
2021/06/23 02:40:30;;;;;;;10.00;6.87;;;24.00;77.60;;;;;;1900303;75;21009;-50
2021/06/23 02:43:00;;;;;;;9.60;6.72;;;24.00;77.70;;;;;;1899780;74;21086;-52
2021/06/23 02:45:31;;;;;;;11.90;7.25;;;24.00;77.70;;;;;;1858160;77;21029;-49
2021/06/23 02:48:02;;;;;;;8.68;7.53;;;24.00;78.00;;;;;;1900394;75;21033;-49
2021/06/23 02:51:00;;;;;;;12.98;7.37;;;24.00;78.00;;;;;;1847236;77;21094;-51
2021/06/23 02:53:30;;;;;;;11.25;6.87;;;24.10;78.00;;;;;;1849015;76;21017;-50
2021/06/23 02:56:00;;;;;;;9.33;7.58;;;24.20;77.80;;;;;;1884793;75;21011;-52
2021/06/23 02:58:34;;;;;;;14.60;7.80;;;24.40;77.60;;;;;;1883865;76;21034;-52
2021/06/23 03:01:03;;;;;;;7.97;6.53;;;24.50;77.30;;;;;;1884808;76;21070;-49
2021/06/23 03:03:35;;;;;;;11.12;6.17;;;24.60;77.70;;;;;;1883580;76;21062;-51
2021/06/23 03:06:05;;;;;;;20.80;8.85;;;24.70;76.90;;;;;;1884818;76;21039;-50
2021/06/23 03:08:35;;;;;;;15.48;7.62;;;24.70;76.80;;;;;;1884638;76;21030;-50
2021/06/23 03:11:07;;;;;;;8.55;6.53;;;24.80;76.70;;;;;;1884711;75;21054;-50
2021/06/23 03:13:38;;;;;;;11.12;6.67;;;24.80;76.60;;;;;;1882180;75;21053;-52
2021/06/23 03:16:09;;;;;;;10.15;6.50;;;24.90;76.50;;;;;;1883117;76;21011;-50
2021/06/23 03:18:39;;;;;;;16.00;8.28;;;24.90;76.30;;;;;;1884399;76;21480;-52
2021/06/23 03:21:10;;;;;;;11.33;6.65;;;25.00;76.20;;;;;;1884853;76;21030;-51
2021/06/23 03:23:42;;;;;;;9.63;6.90;;;25.00;76.10;;;;;;1884503;76;21033;-52
2021/06/23 03:26:11;;;;;;;9.58;6.58;;;25.00;75.90;;;;;;1884645;75;21526;-50
2021/06/23 03:28:41;;;;;;;14.07;6.78;;;25.10;75.90;;;;;;1884639;75;21026;-51
2021/06/23 03:31:11;;;;;;;14.75;6.65;;;25.20;75.80;;;;;;1884926;75;21015;-50
2021/06/23 03:33:41;;;;;;;9.65;6.30;;;25.20;75.50;;;;;;1884664;76;21026;-51
2021/06/23 03:36:12;;;;;;;6.97;6.28;;;25.30;75.50;;;;;;1884576;75;21183;-51
2021/06/23 03:38:42;;;;;;;10.98;6.60;;;25.40;74.90;;;;;;1884585;76;21026;-52
2021/06/23 03:41:13;;;;;;;10.80;6.87;;;25.40;74.50;;;;;;1884629;76;21120;-49
2021/06/23 03:43:44;;;;;;;12.93;7.67;;;25.40;74.80;;;;;;1884761;75;21097;-52
2021/06/23 03:46:14;;;;;;;6.42;5.83;;;25.50;74.80;;;;;;1884630;76;21031;-50
2021/06/23 03:48:44;;;;;;;13.78;7.33;;;25.50;74.40;;;;;;1884781;76;21076;-51
2021/06/23 03:51:15;;;;;;;15.70;7.33;;;25.60;74.20;;;;;;1892160;76;21086;-52
2021/06/23 03:53:45;;;;;;;14.40;7.15;;;25.60;73.80;;;;;;1893982;76;21038;-49
2021/06/23 03:56:14;;;;;;;14.90;7.40;;;25.50;74.00;;;;;;1893913;75;20998;-52
2021/06/23 03:58:44;;;;;;;14.38;7.60;;;25.40;74.00;;;;;;1894058;76;21388;-52
2021/06/23 04:01:14;;;;;;;10.98;9.23;;;25.40;74.60;;;;;;1893910;76;21125;-51
2021/06/23 04:03:44;;;;;;;14.13;9.48;;;25.40;74.30;;;;;;1890993;75;21100;-52
2021/06/23 04:06:31;;;;;;;10.98;8.45;;;25.40;74.30;;;;;;1893883;76;21104;-49
2021/06/23 04:09:02;;;;;;;10.45;7.00;;;25.40;74.30;;;;;;1893779;75;21090;-50
2021/06/23 04:11:32;;;;;;;15.80;6.50;;;25.40;74.30;;;;;;1893886;76;21092;-49
2021/06/23 04:14:03;;;;;;;10.58;6.60;;;25.30;74.30;;;;;;1894048;76;21018;-49
2021/06/23 04:16:33;;;;;;;16.07;6.85;;;25.30;74.70;;;;;;1894273;75;21103;-52
2021/06/23 04:19:03;;;;;;;18.55;6.72;;;25.30;74.70;;;;;;1894288;75;21171;-49
2021/06/23 04:21:32;;;;;;;11.70;6.55;;;25.50;74.40;;;;;;1894216;76;21087;-53
2021/06/23 04:24:03;;;;;;;10.90;6.72;;;25.60;74.20;;;;;;1893691;75;21112;-53
2021/06/23 04:26:34;;;;;;;11.03;5.83;;;25.70;73.90;;;;;;1894159;74;21097;-50
2021/06/23 04:29:04;;;;;;;8.70;6.00;;;25.90;73.40;;;;;;1894276;75;21034;-49
2021/06/23 04:31:34;;;;;;;9.23;6.05;;;26.00;72.90;;;;;;1894227;76;21096;-53
2021/06/23 04:34:04;;;;;;;8.35;6.20;;;26.10;72.80;;;;;;1894225;76;21089;-49
2021/06/23 04:36:34;;;;;;;9.68;6.53;;;26.20;72.40;;;;;;1894184;76;21224;-49
2021/06/23 04:39:04;;;;;;;11.22;7.33;;;26.20;71.90;;;;;;1894227;74;21078;-52
2021/06/23 04:41:35;;;;;;;13.70;6.67;;;26.20;71.80;;;;;;1893489;75;21101;-51
2021/06/23 04:44:04;;;;;;;17.23;10.68;;;26.30;72.00;;;;;;1894161;75;21034;-51
2021/06/23 04:46:34;;;;;;;14.10;8.10;;;26.20;72.00;;;;;;1894248;76;21147;-50
2021/06/23 04:49:04;;;;;;;9.68;6.75;;;26.20;71.90;;;;;;1894228;76;21077;-49
2021/06/23 04:51:35;;;;;;;10.68;6.70;;;26.30;71.90;;;;;;1887131;75;21194;-49
2021/06/23 04:54:05;;;;;;;9.28;6.53;;;26.30;71.80;;;;;;1894145;76;21034;-52
2021/06/23 04:56:34;;;;;;;7.42;6.50;;;26.30;71.30;;;;;;1894072;76;21065;-52
2021/06/23 04:59:04;;;;;;;7.92;6.67;;;26.30;71.30;;;;;;1894073;75;21062;-49
2021/06/23 05:01:34;;;;;;;14.95;6.92;;;26.20;71.50;;;;;;1894038;75;21070;-51
2021/06/23 05:04:05;;;;;;;12.53;7.15;;;26.10;71.90;;;;;;1894036;75;21049;-51
2021/06/23 05:06:34;;;;;;;12.70;7.40;;;26.10;72.40;;;;;;1893913;76;21003;-51
2021/06/23 05:09:06;;;;;;;9.35;6.55;;;26.10;72.70;;;;;;1894275;75;21418;-51
2021/06/23 05:11:35;;;;;;;9.60;7.15;;;26.10;72.60;;;;;;1894181;76;21480;-51
2021/06/23 05:14:06;;;;;;;15.88;7.05;;;26.10;72.50;;;;;;1894145;76;21066;-52
2021/06/23 05:16:38;;;;;;;12.40;6.92;;;26.10;72.70;;;;;;1894063;75;20999;-53
2021/06/23 05:19:08;;;;;;;15.10;6.72;;;26.00;72.50;;;;;;1894291;76;21129;-49
2021/06/23 05:21:38;;;;;;;11.40;6.58;;;26.00;72.40;;;;;;1894048;76;21033;-51
2021/06/23 05:24:08;;;;;;;19.37;11.75;;;26.00;72.50;;;;;;1894212;76;21026;-52
2021/06/23 05:26:38;;;;;;;13.35;7.90;;;26.00;72.60;;;;;;1893954;76;21006;-52
2021/06/23 05:29:07;;;;;;;12.65;8.08;;;26.10;72.70;;;;;;1893956;76;21030;-52
2021/06/23 05:31:36;;;;;;;10.05;7.83;;;26.10;72.50;;;;;;1893855;76;21155;-52
2021/06/23 05:34:06;;;;;;;17.15;7.47;;;26.20;72.70;;;;;;1894013;76;21026;-52
2021/06/23 05:36:35;;;;;;;9.70;7.80;;;26.30;72.60;;;;;;1893891;76;21099;-53
2021/06/23 05:39:05;;;;;;;9.78;8.00;;;26.40;72.70;;;;;;1893978;76;21026;-52
2021/06/23 05:41:34;;;;;;;17.12;8.13;;;26.60;72.50;;;;;;1893880;75;21026;-51
2021/06/23 05:44:04;;;;;;;14.15;8.43;;;26.60;72.30;;;;;;1894016;75;21096;-51
2021/06/23 05:46:33;;;;;;;17.07;9.58;;;26.60;72.20;;;;;;1894050;76;21113;-53
2021/06/23 05:49:03;;;;;;;25.32;9.10;;;26.60;72.50;;;;;;1894026;75;21088;-52
2021/06/23 05:51:32;;;;;;;12.37;9.35;;;26.50;72.80;;;;;;1883581;75;21066;-52
2021/06/23 05:54:02;;;;;;;10.38;7.85;;;26.40;72.90;;;;;;1837326;77;21547;-52
2021/06/23 05:56:31;;;;;;;12.10;7.80;;;26.40;73.30;;;;;;1837333;77;21092;-53
2021/06/23 05:59:01;;;;;;;18.45;8.83;;;26.40;73.60;;;;;;1837323;77;21042;-50
2021/06/23 06:01:30;;;;;;;13.80;9.38;;;26.40;73.80;;;;;;1837315;77;21108;-52
2021/06/23 06:03:59;;;;;;;13.53;7.95;;;26.40;74.00;;;;;;1837364;77;21026;-52
2021/06/23 06:06:29;;;;;;;13.03;8.00;;;26.40;74.30;;;;;;1837339;78;21096;-50
2021/06/23 06:08:59;;;;;;;11.10;8.78;;;26.40;74.30;;;;;;1837379;76;21117;-52
2021/06/23 06:11:28;;;;;;;16.82;9.88;;;26.40;74.30;;;;;;1837256;77;21092;-51
2021/06/23 06:13:57;;;;;;;17.85;8.10;;;26.40;74.40;;;;;;1837343;77;21096;-52
2021/06/23 06:16:27;;;;;;;12.98;8.18;;;26.50;74.50;;;;;;1837344;77;21088;-53
2021/06/23 06:18:56;;;;;;;11.65;8.05;;;26.60;74.40;;;;;;1837369;78;21120;-51
2021/06/23 06:21:26;;;;;;;10.70;8.23;;;26.80;74.70;;;;;;1837190;78;21147;-50
2021/06/23 06:23:55;;;;;;;18.12;7.92;;;27.00;74.60;;;;;;1837332;77;21021;-53
2021/06/23 06:26:25;;;;;;;10.65;7.10;;;27.30;74.10;;;;;;1837364;77;21034;-48
2021/06/23 06:28:54;;;;;;;15.43;8.03;;;27.40;73.60;;;;;;1837496;78;21085;-52
2021/06/23 06:31:24;;;;;;;14.05;9.20;;;27.60;73.30;;;;;;1837417;78;21097;-53
2021/06/23 06:33:53;;;;;;;12.07;8.30;;;27.70;73.00;;;;;;1837406;78;21026;-50
2021/06/23 06:36:23;;;;;;;11.78;7.80;;;27.70;72.50;;;;;;1837425;77;21186;-49
2021/06/23 06:38:52;;;;;;;10.43;8.40;;;27.70;72.50;;;;;;1837425;77;21030;-53
2021/06/23 06:41:22;;;;;;;16.00;8.95;;;27.60;72.60;;;;;;1837366;78;21096;-52
2021/06/23 06:43:51;;;;;;;17.50;8.35;;;27.50;72.60;;;;;;1837391;77;21030;-52
2021/06/23 06:46:20;;;;;;;90.28;17.30;;;27.40;72.70;;;;;;1837385;76;21034;-51
2021/06/23 06:48:50;;;;;;;12.23;8.50;;;27.30;72.90;;;;;;1837290;78;21105;-52
2021/06/23 06:51:19;;;;;;;13.85;8.10;;;27.20;73.00;;;;;;1838729;77;21559;-50
2021/06/23 06:53:49;;;;;;;24.25;10.53;;;27.20;73.20;;;;;;1849180;76;21030;-52
2021/06/23 06:56:18;;;;;;;15.95;10.00;;;27.20;73.30;;;;;;1849063;77;21103;-52
2021/06/23 06:58:48;;;;;;;11.48;8.50;;;27.10;73.40;;;;;;1884698;76;21180;-51
2021/06/23 07:01:18;;;;;;;20.80;9.65;;;27.10;73.50;;;;;;1884657;76;21084;-52
2021/06/23 07:03:47;;;;;;;12.18;9.63;;;27.10;73.70;;;;;;1884758;75;21100;-52
2021/06/23 07:06:16;;;;;;;12.88;9.03;;;27.00;74.00;;;;;;1884800;76;21006;-52
2021/06/23 07:08:46;;;;;;;27.82;11.08;;;27.00;74.30;;;;;;1884726;76;21030;-52
2021/06/23 07:11:15;;;;;;;17.90;9.05;;;27.00;74.40;;;;;;1884574;75;21043;-52
2021/06/23 07:13:45;;;;;;;25.37;9.40;;;27.00;74.30;;;;;;1884577;76;21030;-49
2021/06/23 07:16:14;;;;;;;13.08;9.25;;;27.00;74.30;;;;;;1884592;75;21050;-51
2021/06/23 07:18:45;;;;;;;12.70;8.13;;;27.10;74.30;;;;;;1884772;76;21128;-52
2021/06/23 07:21:18;;;;;;;14.83;8.78;;;27.10;74.10;;;;;;1884832;76;21131;-52
2021/06/23 07:23:46;;;;;;;15.68;9.90;;;27.20;73.90;;;;;;1884674;75;21046;-52
2021/06/23 07:26:16;;;;;;;11.43;7.58;;;27.20;73.90;;;;;;1884705;76;21006;-51
2021/06/23 07:28:53;;;;;;;12.53;7.70;;;27.30;73.70;;;;;;1884706;76;21029;-53
2021/06/23 07:31:28;;;;;;;11.43;7.50;;;27.50;73.30;;;;;;1883218;75;21023;-49
2021/06/23 07:34:14;;;;;;;16.07;7.95;;;27.80;72.00;;;;;;1883829;75;21058;-48
2021/06/23 07:36:36;;;;;;;22.40;7.45;;;27.90;71.50;;;;;;1880737;76;21078;-49
2021/06/23 07:39:08;;;;;;;13.65;6.85;;;28.10;70.90;;;;;;1883614;75;21102;-45
2021/06/23 07:41:39;;;;;;;9.90;6.58;;;28.20;69.60;;;;;;1884002;75;21022;-47
2021/06/23 07:44:10;;;;;;;17.23;6.87;;;28.30;68.70;;;;;;1884100;76;21062;-46
2021/06/23 07:46:53;;;;;;;16.17;6.75;;;28.40;68.20;;;;;;1883749;75;21023;-49
2021/06/23 07:49:12;;;;;;;8.48;6.20;;;28.50;67.10;;;;;;1878532;76;21550;-50
2021/06/23 07:51:57;;;;;;;10.50;6.58;;;28.50;66.60;;;;;;1884074;76;21023;-48
2021/06/23 08:03:00;;;;;;;15.13;8.15;;;28.50;66.90;;;;;;1893392;74;21484;-46
2021/06/23 08:08:18;;;;;;;13.98;6.70;;;28.50;67.10;;;;;;1893279;76;21086;-47
2021/06/23 08:10:52;;;;;;;12.25;6.83;;;28.50;67.00;;;;;;1856456;77;21096;-45
2021/06/23 08:13:20;;;;;;;15.93;7.58;;;28.50;66.40;;;;;;1899464;75;21049;-48
2021/06/23 08:15:50;;;;;;;14.80;7.72;;;28.50;66.50;;;;;;1857174;77;21033;-48
2021/06/23 08:18:20;;;;;;;9.43;7.10;;;28.40;67.00;;;;;;1899552;75;21006;-46
2021/06/23 08:20:52;;;;;;;15.48;7.50;;;28.40;67.20;;;;;;1857199;76;21155;-44
2021/06/23 08:23:22;;;;;;;13.30;8.73;;;28.50;67.50;;;;;;1857297;76;21750;-48
2021/06/23 08:25:51;;;;;;;11.63;6.92;;;28.50;67.30;;;;;;1899537;75;21034;-48
2021/06/23 08:28:21;;;;;;;9.83;6.83;;;28.50;67.20;;;;;;1857419;76;21014;-45
2021/06/23 08:30:51;;;;;;;17.90;8.83;;;28.50;66.90;;;;;;1857188;76;21080;-47
2021/06/23 08:33:25;;;;;;;44.33;10.48;;;28.60;67.20;;;;;;1899478;75;21328;-46
2021/06/23 08:35:52;;;;;;;19.82;8.38;;;28.60;66.80;;;;;;1856934;77;21103;-47
2021/06/23 08:38:22;;;;;;;17.25;8.83;;;28.60;66.90;;;;;;1899384;75;21158;-46
2021/06/23 08:40:52;;;;;;;17.70;9.73;;;28.70;67.10;;;;;;1857071;76;21033;-44
2021/06/23 08:43:22;;;;;;;13.13;8.20;;;28.70;67.00;;;;;;1899307;75;21030;-44
2021/06/23 08:45:51;;;;;;;14.30;6.60;;;28.70;67.00;;;;;;1857172;76;21025;-44
2021/06/23 08:48:21;;;;;;;12.23;6.92;;;28.80;67.00;;;;;;1899214;75;21104;-46
2021/06/23 08:50:51;;;;;;;20.25;7.80;;;28.80;66.70;;;;;;1857277;77;21091;-48
2021/06/23 08:53:20;;;;;;;32.60;8.98;;;28.70;66.60;;;;;;1847501;77;21069;-47
2021/06/23 08:55:50;;;;;;;17.25;7.45;;;28.80;66.90;;;;;;1836518;76;21096;-51
2021/06/23 08:58:20;;;;;;;10.98;7.58;;;28.80;67.00;;;;;;1836679;77;21055;-48
2021/06/23 09:00:49;;;;;;;19.32;7.87;;;28.80;66.90;;;;;;1836581;76;21101;-47
2021/06/23 09:03:19;;;;;;;14.75;7.58;;;28.80;66.70;;;;;;1836619;76;21030;-49
2021/06/23 09:05:59;;;;;;;11.12;7.53;;;28.90;67.00;;;;;;1836731;77;21124;-47
2021/06/23 09:08:34;;;;;;;13.38;6.78;;;28.90;66.80;;;;;;1836668;78;20998;-47
2021/06/23 09:11:05;;;;;;;15.75;8.05;;;28.90;66.70;;;;;;1836812;77;21548;-47
2021/06/23 09:13:35;;;;;;;13.28;6.87;;;28.90;66.80;;;;;;1835557;76;21120;-47
2021/06/23 09:16:05;;;;;;;12.50;6.90;;;29.00;66.60;;;;;;1836662;77;21128;-50
2021/06/23 09:18:36;;;;;;;13.83;7.85;;;29.00;66.40;;;;;;1836496;78;21157;-54
2021/06/23 09:21:14;;;;;;;10.68;7.08;;;29.10;66.30;;;;;;1836590;77;21026;-53
2021/06/23 09:23:56;;;;;;;18.57;8.13;;;29.10;66.20;;;;;;1836622;77;21116;-52
2021/06/23 09:26:29;;;;;;;18.73;7.72;;;29.20;66.20;;;;;;1836627;78;21340;-49
2021/06/23 09:29:16;;;;;;;36.30;24.20;;;29.30;65.90;;;;;;1836639;77;21054;-51
2021/06/23 09:31:57;;;;;;;16.40;7.53;;;29.40;65.70;;;;;;1836504;78;21073;-49
2021/06/23 09:34:46;;;;;;;15.32;7.50;;;29.60;65.10;;;;;;1836701;77;21030;-51
2021/06/23 09:37:29;;;;;;;;;;;29.80;65.00;;;;;;1838242;77;21006;-49
2021/06/23 09:40:17;;;;;;;12.50;7.42;;;29.90;64.30;;;;;;1824202;79;20104;-50
2021/06/23 09:43:00;;;;;;;14.85;7.45;;;30.00;64.40;;;;;;1824155;79;21118;-48
2021/06/23 09:45:29;;;;;;;16.62;7.67;;;30.10;64.40;;;;;;1824104;78;21179;-50
2021/06/23 09:48:04;;;;;;;13.55;7.75;;;30.20;64.00;;;;;;1823905;78;21151;-52
2021/06/23 09:50:34;;;;;;;12.88;7.65;;;30.20;63.60;;;;;;1823610;78;21634;-50
2021/06/23 09:53:08;;;;;;;21.23;9.10;;;30.20;63.70;;;;;;1824894;78;21105;-50
2021/06/23 09:55:45;;;;;;;19.95;8.68;;;30.20;63.80;;;;;;1884214;76;21074;-51
2021/06/23 09:58:19;;;;;;;21.02;8.05;;;30.20;63.40;;;;;;1883976;75;21011;-49
2021/06/23 10:01:13;;;;;;;19.42;7.85;;;30.20;62.90;;;;;;1884093;76;21550;-46
2021/06/23 10:04:04;;;;;;;12.80;7.65;;;30.20;62.80;;;;;;1882431;76;21022;-48
2021/06/23 10:06:45;;;;;;;15.65;8.80;;;30.20;63.10;;;;;;1883924;75;21003;-48
2021/06/23 10:09:29;;;;;;;21.73;7.55;;;30.30;63.40;;;;;;1884207;75;21685;-49
2021/06/23 10:12:07;;;;;;;33.70;11.73;;;30.40;63.10;;;;;;1884038;75;21140;-48
2021/06/23 10:14:46;;;;;;;21.80;8.08;;;30.60;62.50;;;;;;1884067;76;21034;-46
2021/06/23 10:17:16;;;;;;;16.15;8.60;;;30.80;61.90;;;;;;1884219;76;21229;-45
2021/06/23 10:19:46;;;;;;;24.90;9.75;;;30.90;61.30;;;;;;1884007;75;21081;-50
2021/06/23 10:22:15;;;;;;;18.00;10.23;;;31.00;60.90;;;;;;1883942;76;21166;-48
2021/06/23 10:24:46;;;;;;;26.87;8.55;;;31.10;60.50;;;;;;1884238;75;21152;-49
2021/06/23 10:27:15;;;;;;;18.35;8.53;;;31.20;59.90;;;;;;1884131;75;21069;-48
2021/06/23 10:29:46;;;;;;;12.40;7.55;;;31.30;59.70;;;;;;1884135;76;21069;-48
2021/06/23 10:32:16;;;;;;;16.20;7.97;;;31.50;59.80;;;;;;1884127;76;21109;-50
2021/06/23 10:34:46;;;;;;;20.62;7.75;;;31.50;59.50;;;;;;1884114;76;21082;-51
2021/06/23 10:37:16;;;;;;;17.27;8.30;;;31.50;59.10;;;;;;1884043;75;21171;-48
2021/06/23 10:39:46;;;;;;;18.23;8.23;;;31.50;59.20;;;;;;1883950;76;21062;-49
2021/06/23 10:42:16;;;;;;;20.23;8.38;;;31.40;59.30;;;;;;1883787;76;21074;-50
2021/06/23 10:44:48;;;;;;;19.77;6.97;;;31.30;59.40;;;;;;1883961;76;21136;-53
2021/06/23 10:47:39;;;;;;;28.27;8.13;;;31.30;59.70;;;;;;1847852;77;21116;-51
2021/06/23 10:50:10;;;;;;;16.05;7.55;;;31.20;59.60;;;;;;1847961;76;21507;-48
2021/06/23 10:52:43;;;;;;;20.20;7.62;;;31.20;59.50;;;;;;1884179;75;21089;-49
2021/06/23 10:55:20;;;;;;;15.48;7.17;;;31.10;59.50;;;;;;1891067;75;21053;-50
2021/06/23 10:57:50;;;;;;;26.02;9.13;;;31.10;59.60;;;;;;1883851;76;21022;-51
2021/06/23 11:00:23;;;;;;;19.02;8.23;;;31.10;60.00;;;;;;1856404;77;21527;-50
2021/06/23 11:03:07;;;;;;;22.13;9.80;;;31.00;60.30;;;;;;1899702;75;21214;-50
2021/06/23 11:05:41;;;;;;;17.50;8.05;;;30.90;60.80;;;;;;1857589;77;21464;-50
2021/06/23 11:08:33;;;;;;;17.87;7.65;;;30.80;61.30;;;;;;1857657;76;21021;-49
2021/06/23 11:11:05;;;;;;;12.35;7.28;;;30.70;61.20;;;;;;1899528;75;21010;-52
2021/06/23 11:13:39;;;;;;;13.13;7.10;;;30.70;61.70;;;;;;1857443;76;21026;-48
2021/06/23 11:16:10;;;;;;;16.40;7.95;;;30.70;61.20;;;;;;1857529;76;21064;-48
2021/06/23 11:18:40;;;;;;;15.95;7.30;;;30.70;61.10;;;;;;1853479;77;21162;-51
2021/06/23 11:21:12;;;;;;;16.30;7.75;;;30.80;61.00;;;;;;1899654;75;21092;-49
2021/06/23 11:23:51;;;;;;;17.73;7.20;;;30.80;60.60;;;;;;1857164;77;21174;-49
2021/06/23 11:26:28;;;;;;;17.07;7.30;;;31.00;60.40;;;;;;1899646;74;20994;-48
2021/06/23 11:29:16;;;;;;;14.43;7.60;;;31.10;60.50;;;;;;1857404;77;21068;-47
2021/06/23 11:32:02;;;;;;;15.88;6.95;;;31.10;60.20;;;;;;1857381;76;21061;-47
2021/06/23 11:34:51;;;;;;;17.52;7.62;;;31.20;60.20;;;;;;1899617;75;21557;-49
2021/06/23 11:37:18;;;;;;;16.23;7.15;;;31.30;59.60;;;;;;1856691;76;21100;-49
2021/06/23 11:39:47;;;;;;;15.38;7.58;;;31.20;59.40;;;;;;1858077;76;21103;-48
2021/06/23 11:42:18;;;;;;;20.72;8.00;;;31.20;59.40;;;;;;1900216;74;21006;-50
2021/06/23 11:44:48;;;;;;;17.20;9.03;;;31.10;59.50;;;;;;1858149;76;21009;-50
2021/06/23 11:47:17;;;;;;;26.42;9.08;;;31.20;60.00;;;;;;1900183;75;21083;-50
2021/06/23 11:49:47;;;;;;;17.92;9.78;;;31.20;59.80;;;;;;1858068;76;21033;-46
2021/06/23 11:52:16;;;;;;;11.33;6.55;;;31.20;59.70;;;;;;1900178;75;21073;-50
2021/06/23 11:54:45;;;;;;;16.35;6.47;;;31.20;59.70;;;;;;1854837;77;21104;-48
2021/06/23 11:57:14;;;;;;;17.60;7.30;;;31.20;59.60;;;;;;1884690;76;21104;-49
2021/06/23 11:59:44;;;;;;;17.90;8.13;;;31.00;60.80;;;;;;1884739;76;21088;-49
2021/06/23 12:02:13;;;;;;;17.75;7.58;;;31.00;60.80;;;;;;1884605;76;21030;-49
2021/06/23 12:04:43;;;;;;;23.22;7.70;;;31.10;60.50;;;;;;1884681;76;21041;-47
2021/06/23 12:07:12;;;;;;;12.33;6.28;;;31.10;60.50;;;;;;1884797;76;21039;-49
2021/06/23 12:09:42;;;;;;;14.75;7.60;;;31.10;60.20;;;;;;1884722;76;21104;-50
2021/06/23 12:12:12;;;;;;;22.50;7.65;;;31.10;60.20;;;;;;1884718;76;21030;-47
2021/06/23 12:14:41;;;;;;;15.88;7.50;;;31.10;60.30;;;;;;1884677;76;21029;-48
2021/06/23 12:17:11;;;;;;;16.77;7.80;;;31.10;60.60;;;;;;1884673;76;21022;-47
2021/06/23 12:19:40;;;;;;;17.23;6.72;;;31.10;60.40;;;;;;1884605;76;21042;-50
2021/06/23 12:22:10;;;;;;;18.42;7.62;;;31.10;60.20;;;;;;1884770;76;21042;-48
2021/06/23 12:24:39;;;;;;;23.77;7.47;;;31.10;60.50;;;;;;1884565;76;21022;-50
2021/06/23 12:27:09;;;;;;;19.82;7.15;;;31.10;60.50;;;;;;1884787;75;21100;-50
2021/06/23 12:29:38;;;;;;;16.05;7.85;;;31.20;60.40;;;;;;1884849;75;21026;-49
2021/06/23 12:32:08;;;;;;;16.15;7.05;;;31.30;59.60;;;;;;1884738;75;21022;-49
2021/06/23 12:34:38;;;;;;;15.90;7.60;;;31.40;59.60;;;;;;1884801;75;21035;-47
2021/06/23 12:37:07;;;;;;;18.15;9.18;;;31.40;59.40;;;;;;1884900;76;21080;-50
2021/06/23 12:39:37;;;;;;;23.62;9.43;;;31.50;59.30;;;;;;1884777;76;21563;-47
2021/06/23 12:42:07;;;;;;;18.67;8.65;;;31.50;58.90;;;;;;1884934;76;21074;-47
2021/06/23 12:44:36;;;;;;;21.02;7.35;;;31.60;59.20;;;;;;1884722;75;21188;-49
2021/06/23 12:47:06;;;;;;;14.38;7.03;;;31.60;58.60;;;;;;1884761;76;21030;-50
2021/06/23 12:49:36;;;;;;;16.93;5.90;;;31.70;58.90;;;;;;1884775;76;21076;-48
2021/06/23 12:52:06;;;;;;;21.12;11.88;;;31.80;58.30;;;;;;1884873;76;21100;-48
2021/06/23 12:54:36;;;;;;;15.65;6.92;;;31.90;58.10;;;;;;1884874;76;21034;-50
2021/06/23 12:57:06;;;;;;;25.72;7.67;;;31.90;58.10;;;;;;1894083;75;21026;-50
2021/06/23 12:59:35;;;;;;;18.85;10.05;;;31.90;57.80;;;;;;1894072;76;21034;-48
2021/06/23 13:02:05;;;;;;;19.05;7.17;;;31.90;58.10;;;;;;1894059;76;21034;-47
2021/06/23 13:04:34;;;;;;;26.27;8.78;;;32.00;58.10;;;;;;1894119;76;21034;-50
2021/06/23 13:07:04;;;;;;;18.55;9.15;;;32.00;58.00;;;;;;1894176;74;21007;-47
2021/06/23 13:09:33;;;;;;;19.50;9.88;;;32.00;58.00;;;;;;1893966;74;21030;-50
2021/06/23 13:12:03;;;;;;;16.65;6.87;;;31.90;57.90;;;;;;1894062;76;21058;-48